Lake Ariel, Pennsylvania
Current Conditions -  °F | °C
As of 12:54 AM on Wednesday 26 Nov 2014 (Local Time) from KAVP Reporting Station
Clear Clear  
Wind Chill: 37°   Ceiling: Unl
Heat Index: 41°   Visibility: 10mi
Dew Point: 27°   Wind: 6mph
Humidity: 57%   Direction: 350°N
Pressure: 30.15"   Gusts: NA
Location:  41.45°N, 75.38°W
Report Text: KAVP 260554Z AUTO 35005KT 10SM CLR 05/M03 A3015 RMK AO2 SLP211 T00501028 10067 20033 50008
Loading
Personal Weather Stations






























Interactive Weather Map New forecast layout! Learn more

10-Day Weather Forecast

Advertisements
Track Severe Weather on mobile